Time;durP1;ratioP1;P1;durP2;ratioP2;P2;SDS_P1;SDS_P2;PMS_P1;PMS_P2;Temp;Humidity;BMP_temperature;BMP_pressure;BME280_temperature;BME280_humidity;BME280_pressure;Samples;Min_cycle;Max_cycle;Signal;HPM_P1;HPM_P2
2023/04/13 00:00:15;;;;;;;13.52;3.75;;;19.00;39.80;;;;;;5074346;28;20230;-73
2023/04/13 00:02:44;;;;;;;14.70;3.67;;;19.00;39.80;;;;;;5072619;28;20218;-73
2023/04/13 00:05:12;;;;;;;12.15;3.78;;;19.00;39.80;;;;;;5074662;28;20187;-72
2023/04/13 00:07:40;;;;;;;14.23;4.15;;;19.00;39.80;;;;;;5074450;28;20241;-73
2023/04/13 00:10:09;;;;;;;13.23;3.28;;;19.00;39.70;;;;;;5074150;28;20191;-72
2023/04/13 00:12:37;;;;;;;11.90;3.78;;;19.00;39.60;;;;;;5074656;28;20222;-73
2023/04/13 00:15:06;;;;;;;11.80;3.78;;;19.00;39.70;;;;;;5106544;28;20586;-73
2023/04/13 00:17:34;;;;;;;12.88;4.00;;;18.90;39.60;;;;;;5074386;28;20250;-73
2023/04/13 00:20:08;;;;;;;11.60;3.25;;;19.00;39.60;;;;;;5074375;28;20672;-73
2023/04/13 00:22:35;;;;;;;12.40;3.33;;;19.00;39.70;;;;;;5074202;28;20726;-74
2023/04/13 00:25:02;;;;;;;12.02;3.42;;;18.90;39.60;;;;;;5074099;28;20237;-73
2023/04/13 00:27:29;;;;;;;13.48;3.95;;;19.00;39.70;;;;;;5074262;28;20623;-73
2023/04/13 00:29:56;;;;;;;10.95;3.13;;;18.90;39.50;;;;;;5074246;28;20333;-73
2023/04/13 00:32:26;;;;;;;12.15;3.70;;;18.90;39.50;;;;;;5073897;28;20261;-73
2023/04/13 00:34:53;;;;;;;13.05;3.55;;;18.90;39.50;;;;;;5074132;28;20230;-73
2023/04/13 00:37:20;;;;;;;14.68;3.55;;;18.90;39.50;;;;;;5083770;28;20258;-73
2023/04/13 00:39:48;;;;;;;9.95;3.42;;;18.90;39.50;;;;;;5078455;28;20231;-73
2023/04/13 00:42:18;;;;;;;12.70;4.13;;;18.90;39.60;;;;;;5073500;28;20218;-73
2023/04/13 00:44:45;;;;;;;12.48;3.30;;;18.90;39.60;;;;;;5073601;28;20226;-73
2023/04/13 00:47:12;;;;;;;9.48;3.00;;;18.90;39.50;;;;;;5073677;28;20250;-73
2023/04/13 00:49:41;;;;;;;13.32;3.25;;;18.90;39.60;;;;;;5073372;28;20225;-73
2023/04/13 00:52:10;;;;;;;9.57;3.53;;;18.90;39.60;;;;;;5073432;28;20712;-73
2023/04/13 00:54:38;;;;;;;12.30;3.22;;;18.90;39.50;;;;;;5073443;28;20191;-72
2023/04/13 00:57:06;;;;;;;12.38;3.70;;;18.90;39.50;;;;;;5073588;28;20210;-73
2023/04/13 00:59:34;;;;;;;11.77;3.28;;;18.80;39.60;;;;;;5073550;28;20230;-73
2023/04/13 01:02:03;;;;;;;11.25;3.00;;;18.90;39.60;;;;;;5073237;28;20695;-73
2023/04/13 01:04:32;;;;;;;14.25;3.08;;;18.80;39.50;;;;;;5073441;28;20183;-72
2023/04/13 01:07:08;;;;;;;11.85;3.15;;;18.80;39.60;;;;;;5073192;28;20218;-73
2023/04/13 01:09:41;;;;;;;12.07;3.60;;;18.90;39.60;;;;;;5073071;28;20305;-73
2023/04/13 01:12:13;;;;;;;12.25;3.92;;;18.80;39.50;;;;;;5073310;28;20674;-71
2023/04/13 01:14:48;;;;;;;14.23;3.83;;;18.90;39.70;;;;;;5073240;28;20191;-73
2023/04/13 01:17:21;;;;;;;17.23;3.63;;;18.80;39.70;;;;;;5073357;28;20217;-72
2023/04/13 01:19:55;;;;;;;12.95;3.25;;;18.80;39.60;;;;;;5073175;28;20562;-73
2023/04/13 01:22:28;;;;;;;11.68;3.67;;;18.80;39.70;;;;;;5071852;28;20219;-73
2023/04/13 01:25:16;;;;;;;9.32;3.10;;;18.80;39.70;;;;;;5070882;28;20851;-73
2023/04/13 01:27:49;;;;;;;12.73;3.13;;;18.80;39.70;;;;;;5072767;28;20309;-73
2023/04/13 01:30:20;;;;;;;16.35;3.20;;;18.80;39.70;;;;;;5071704;28;20719;-73
2023/04/13 01:32:49;;;;;;;11.27;3.05;;;18.80;39.70;;;;;;5072924;28;20240;-72
2023/04/13 01:35:18;;;;;;;12.07;3.50;;;18.80;39.70;;;;;;5072726;28;20222;-73
2023/04/13 01:37:45;;;;;;;16.05;3.47;;;18.80;39.70;;;;;;5073061;28;20276;-73
2023/04/13 01:40:13;;;;;;;9.00;3.05;;;18.80;39.70;;;;;;5072788;28;20214;-73
2023/04/13 01:42:41;;;;;;;12.20;3.40;;;18.80;39.70;;;;;;5072953;28;20253;-72
2023/04/13 01:45:14;;;;;;;16.02;3.55;;;18.80;39.70;;;;;;5072673;28;20195;-72
2023/04/13 01:47:48;;;;;;;8.85;3.00;;;18.70;39.60;;;;;;5071592;28;20222;-73
2023/04/13 01:50:24;;;;;;;14.20;3.45;;;18.80;39.70;;;;;;5072654;28;20324;-73
2023/04/13 01:52:54;;;;;;;12.20;3.42;;;18.80;39.70;;;;;;5072825;28;20258;-73
2023/04/13 01:55:23;;;;;;;11.98;2.80;;;18.70;39.50;;;;;;5072366;28;20183;-73
2023/04/13 01:57:53;;;;;;;11.38;3.40;;;18.70;39.50;;;;;;5104633;28;20700;-72
2023/04/13 02:00:21;;;;;;;14.27;3.00;;;18.70;39.50;;;;;;5072436;28;20564;-73
2023/04/13 02:02:49;;;;;;;10.85;2.97;;;18.70;39.50;;;;;;5072605;28;20250;-72
2023/04/13 02:05:16;;;;;;;10.25;3.70;;;18.70;39.50;;;;;;5072258;28;20187;-73
2023/04/13 02:07:44;;;;;;;14.05;3.70;;;18.70;39.50;;;;;;5072708;28;20253;-73
2023/04/13 02:10:12;;;;;;;16.08;3.30;;;18.70;39.50;;;;;;5072330;28;20221;-72
2023/04/13 02:12:39;;;;;;;11.00;3.03;;;18.70;39.60;;;;;;5072583;28;20252;-72
2023/04/13 02:15:07;;;;;;;9.25;2.47;;;18.70;39.60;;;;;;5072128;28;20648;-73
2023/04/13 02:17:36;;;;;;;10.57;3.10;;;18.70;40.30;;;;;;5104707;28;20632;-74
2023/04/13 02:20:09;;;;;;;14.60;3.05;;;18.70;39.60;;;;;;5072317;28;20599;-73
2023/04/13 02:22:38;;;;;;;11.15;3.28;;;18.70;39.60;;;;;;5072471;28;20225;-73
2023/04/13 02:25:07;;;;;;;10.13;2.88;;;18.70;39.60;;;;;;5074818;28;20230;-73
2023/04/13 02:27:34;;;;;;;9.45;2.92;;;18.70;39.60;;;;;;5072441;28;20257;-73
2023/04/13 02:30:02;;;;;;;12.27;3.25;;;18.70;39.70;;;;;;5072116;28;20227;-72
2023/04/13 02:32:30;;;;;;;13.77;3.58;;;18.70;39.60;;;;;;5072258;28;20215;-73
2023/04/13 02:34:58;;;;;;;13.77;3.65;;;18.70;39.70;;;;;;5071883;28;20645;-73
2023/04/13 02:37:26;;;;;;;13.70;3.10;;;18.60;39.60;;;;;;5073400;28;20253;-73
2023/04/13 02:39:54;;;;;;;14.95;3.35;;;18.60;39.60;;;;;;5076184;28;20187;-73
2023/04/13 02:42:21;;;;;;;11.80;2.95;;;18.60;39.60;;;;;;5076035;28;20214;-73
2023/04/13 02:44:49;;;;;;;9.93;2.85;;;18.70;39.80;;;;;;5076273;28;20197;-73
2023/04/13 02:47:16;;;;;;;12.02;3.05;;;18.70;39.80;;;;;;5075948;28;20219;-73
2023/04/13 02:49:44;;;;;;;13.95;3.10;;;18.60;39.70;;;;;;5075722;28;20223;-73
2023/04/13 02:52:13;;;;;;;13.07;3.20;;;18.60;39.70;;;;;;5075659;28;20812;-73
2023/04/13 02:54:42;;;;;;;10.18;2.95;;;18.60;39.70;;;;;;5108220;28;20222;-72
2023/04/13 02:57:12;;;;;;;13.00;3.10;;;18.60;39.80;;;;;;5076023;28;20260;-73
2023/04/13 02:59:40;;;;;;;15.18;3.50;;;18.60;39.70;;;;;;5075857;28;20191;-73
2023/04/13 03:02:08;;;;;;;12.95;3.33;;;18.60;39.80;;;;;;5075613;28;20723;-73
2023/04/13 03:04:35;;;;;;;9.98;3.17;;;18.60;39.80;;;;;;5075827;28;20191;-73
2023/04/13 03:07:04;;;;;;;12.10;3.22;;;18.60;39.80;;;;;;5075811;28;20313;-73
2023/04/13 03:09:33;;;;;;;11.98;2.92;;;18.60;39.80;;;;;;5075522;28;20250;-73
2023/04/13 03:12:01;;;;;;;12.85;3.45;;;18.60;39.80;;;;;;5075361;28;20581;-73
2023/04/13 03:14:28;;;;;;;11.00;3.35;;;18.60;39.80;;;;;;5075675;28;20191;-73
2023/04/13 03:16:56;;;;;;;9.95;2.75;;;18.60;39.80;;;;;;5075282;28;20722;-73
2023/04/13 03:19:23;;;;;;;11.85;3.28;;;18.60;39.80;;;;;;5075277;28;20191;-73
2023/04/13 03:21:51;;;;;;;10.13;3.20;;;18.60;39.80;;;;;;5075053;28;20696;-73
2023/04/13 03:24:18;;;;;;;9.60;2.75;;;18.60;39.80;;;;;;5107862;28;20621;-73
2023/04/13 03:26:46;;;;;;;8.73;3.03;;;18.60;39.80;;;;;;5075000;28;20230;-73
2023/04/13 03:29:14;;;;;;;11.85;2.90;;;18.60;39.80;;;;;;5075230;28;20269;-73
2023/04/13 03:31:41;;;;;;;9.50;2.67;;;18.60;39.80;;;;;;5075230;28;20214;-73
2023/04/13 03:34:08;;;;;;;8.35;2.90;;;18.60;39.80;;;;;;5075234;28;20191;-73
2023/04/13 03:36:35;;;;;;;9.65;2.70;;;18.60;39.80;;;;;;5075475;28;20218;-73
2023/04/13 03:39:04;;;;;;;9.32;2.60;;;18.50;39.70;;;;;;5075221;28;20222;-72
2023/04/13 03:41:31;;;;;;;11.90;2.65;;;18.60;39.80;;;;;;5074945;28;20191;-73
2023/04/13 03:43:59;;;;;;;8.10;2.72;;;18.50;39.70;;;;;;5075045;28;20371;-72
2023/04/13 03:46:27;;;;;;;10.38;2.60;;;18.50;39.70;;;;;;5075026;28;20183;-73
2023/04/13 03:48:54;;;;;;;11.13;2.67;;;18.50;39.70;;;;;;5072942;28;20210;-72
2023/04/13 03:51:21;;;;;;;8.88;2.70;;;18.50;39.70;;;;;;5074686;28;20195;-73
2023/04/13 03:53:48;;;;;;;8.95;2.83;;;18.50;39.70;;;;;;5074616;28;20268;-73
2023/04/13 03:56:16;;;;;;;8.98;2.63;;;18.50;39.70;;;;;;5074491;28;20669;-72
2023/04/13 03:58:43;;;;;;;10.10;2.70;;;18.50;39.70;;;;;;5074759;28;20225;-73
2023/04/13 04:01:12;;;;;;;7.60;2.45;;;18.50;39.60;;;;;;5074419;28;20729;-73
2023/04/13 04:03:40;;;;;;;7.70;2.58;;;18.50;39.60;;;;;;5074839;28;20650;-72
2023/04/13 04:06:08;;;;;;;7.93;2.70;;;18.50;39.60;;;;;;5074468;28;20660;-73
2023/04/13 04:08:35;;;;;;;8.45;2.55;;;18.50;39.60;;;;;;5074319;28;20647;-72
2023/04/13 04:11:03;;;;;;;7.47;2.30;;;18.50;39.60;;;;;;5074287;28;20191;-73
2023/04/13 04:13:30;;;;;;;10.00;2.85;;;18.50;39.60;;;;;;5074714;28;20229;-72
2023/04/13 04:15:58;;;;;;;12.45;2.90;;;18.50;39.70;;;;;;5073109;28;20566;-73
2023/04/13 04:18:27;;;;;;;7.63;2.17;;;18.40;39.50;;;;;;5074716;28;20265;-73
2023/04/13 04:20:54;;;;;;;9.50;2.42;;;18.40;39.50;;;;;;5074289;28;20282;-73
2023/04/13 04:23:21;;;;;;;6.80;2.47;;;18.50;39.60;;;;;;5074601;28;20249;-73
2023/04/13 04:25:48;;;;;;;9.77;2.85;;;18.40;39.60;;;;;;5074191;28;20280;-73
2023/04/13 04:28:16;;;;;;;8.30;2.90;;;18.40;39.60;;;;;;5074387;28;20250;-73
2023/04/13 04:30:44;;;;;;;11.63;2.70;;;18.40;39.60;;;;;;5074079;28;20302;-73
2023/04/13 04:33:13;;;;;;;8.10;2.40;;;18.40;39.60;;;;;;5074075;28;20215;-73
2023/04/13 04:35:48;;;;;;;11.25;2.72;;;18.40;39.60;;;;;;5072875;28;20211;-71
2023/04/13 04:38:16;;;;;;;9.32;2.67;;;18.40;39.50;;;;;;5074182;28;20259;-73
2023/04/13 04:40:44;;;;;;;10.90;2.33;;;18.40;39.50;;;;;;5074155;28;20221;-73
2023/04/13 04:43:11;;;;;;;9.43;2.50;;;18.40;39.60;;;;;;5074191;28;20223;-73
2023/04/13 04:45:40;;;;;;;9.25;2.72;;;18.40;39.50;;;;;;5073862;28;20193;-73
2023/04/13 04:48:07;;;;;;;9.48;2.70;;;18.40;39.50;;;;;;5074005;28;20215;-73
2023/04/13 04:50:36;;;;;;;6.95;2.47;;;18.50;39.60;;;;;;5073840;28;20261;-73
2023/04/13 04:53:05;;;;;;;6.90;2.10;;;18.50;39.60;;;;;;5074149;28;20225;-73
2023/04/13 04:55:33;;;;;;;8.50;2.42;;;18.50;39.60;;;;;;5073687;28;20232;-73
2023/04/13 04:58:00;;;;;;;7.20;2.22;;;18.50;39.60;;;;;;5072664;28;20256;-73
2023/04/13 05:00:29;;;;;;;11.48;2.67;;;18.50;39.50;;;;;;5072595;28;20312;-73
2023/04/13 05:02:59;;;;;;;8.70;2.80;;;18.60;39.60;;;;;;5073284;28;20223;-73
2023/04/13 05:05:26;;;;;;;8.90;2.60;;;18.60;39.60;;;;;;5072383;28;20191;-73
2023/04/13 05:07:53;;;;;;;9.10;2.35;;;18.60;39.60;;;;;;5073141;28;20242;-73
2023/04/13 05:10:23;;;;;;;10.70;2.72;;;18.70;39.70;;;;;;5073377;28;20250;-73
2023/04/13 05:12:50;;;;;;;8.00;2.40;;;18.70;39.70;;;;;;5073439;28;20218;-73
2023/04/13 05:15:17;;;;;;;7.53;2.40;;;18.70;39.60;;;;;;5072996;28;20226;-73
2023/04/13 05:17:46;;;;;;;8.85;2.05;;;18.70;39.60;;;;;;5073361;28;20250;-73
2023/04/13 05:20:13;;;;;;;7.30;2.47;;;18.70;39.70;;;;;;5073175;28;20568;-73
2023/04/13 05:22:41;;;;;;;9.25;2.55;;;18.80;39.70;;;;;;5073282;28;20225;-72
2023/04/13 05:25:09;;;;;;;9.73;2.85;;;18.80;39.70;;;;;;5073007;28;20237;-73
2023/04/13 05:27:38;;;;;;;7.90;2.55;;;18.90;39.80;;;;;;5072108;28;20214;-73
2023/04/13 05:30:08;;;;;;;7.95;2.35;;;18.80;39.70;;;;;;5072870;28;20233;-73
2023/04/13 05:32:35;;;;;;;7.47;2.58;;;18.90;39.80;;;;;;5072636;28;20223;-74
2023/04/13 05:35:03;;;;;;;11.25;2.25;;;18.90;39.80;;;;;;5072924;28;20223;-73
2023/04/13 05:37:30;;;;;;;8.23;2.58;;;18.90;39.80;;;;;;5072943;28;20704;-73
2023/04/13 05:39:57;;;;;;;8.68;2.33;;;18.90;39.70;;;;;;5072869;28;20243;-69
2023/04/13 05:42:25;;;;;;;9.20;2.47;;;19.00;39.80;;;;;;5072728;28;20623;-73
2023/04/13 05:44:54;;;;;;;8.00;2.35;;;19.00;39.80;;;;;;5072481;28;20194;-73
2023/04/13 05:47:22;;;;;;;6.05;1.98;;;19.00;39.80;;;;;;5072787;28;20219;-73
2023/04/13 05:49:50;;;;;;;9.82;2.50;;;19.00;39.80;;;;;;5072749;28;20229;-73
2023/04/13 05:52:18;;;;;;;9.25;2.38;;;19.10;39.90;;;;;;5071375;28;20214;-73
2023/04/13 05:54:45;;;;;;;8.85;3.15;;;19.10;39.90;;;;;;5072298;28;20628;-73
2023/04/13 05:57:12;;;;;;;7.35;2.60;;;19.10;39.90;;;;;;5072460;28;20691;-72
2023/04/13 05:59:39;;;;;;;7.57;2.00;;;19.10;39.80;;;;;;5072481;28;20198;-73
2023/04/13 06:02:08;;;;;;;6.65;2.38;;;19.10;39.80;;;;;;5072569;28;20287;-73
2023/04/13 06:04:35;;;;;;;7.57;2.25;;;19.10;39.80;;;;;;5072585;28;20219;-74
2023/04/13 06:07:03;;;;;;;7.63;2.60;;;19.10;39.90;;;;;;5072452;28;20219;-73
2023/04/13 06:09:30;;;;;;;6.55;2.30;;;19.10;39.80;;;;;;5072349;28;20207;-75
2023/04/13 06:11:58;;;;;;;7.38;2.28;;;19.20;39.90;;;;;;5072198;28;20254;-76
2023/04/13 06:14:25;;;;;;;7.68;2.55;;;19.20;40.60;;;;;;5072474;28;20218;-75
2023/04/13 06:16:52;;;;;;;7.00;2.00;;;19.20;39.90;;;;;;5072361;28;20191;-76
2023/04/13 06:19:21;;;;;;;6.97;2.40;;;19.20;39.90;;;;;;5072104;28;20187;-75
2023/04/13 06:21:49;;;;;;;6.05;2.17;;;19.20;39.90;;;;;;5072261;28;20187;-75
2023/04/13 06:24:16;;;;;;;5.78;1.80;;;19.20;39.80;;;;;;5071942;28;20238;-75
2023/04/13 06:26:43;;;;;;;7.07;2.15;;;19.20;39.90;;;;;;5072166;28;20273;-75
2023/04/13 06:29:10;;;;;;;7.15;2.08;;;19.30;39.90;;;;;;5072165;28;20195;-75
2023/04/13 06:31:37;;;;;;;9.10;2.40;;;19.30;39.90;;;;;;5072157;28;20218;-76
2023/04/13 06:34:04;;;;;;;8.88;2.28;;;19.30;39.80;;;;;;5072412;28;20197;-75
2023/04/13 06:36:33;;;;;;;8.60;2.30;;;19.30;39.70;;;;;;5070883;28;20224;-75
2023/04/13 06:39:00;;;;;;;16.50;2.58;;;19.20;39.50;;;;;;5071390;28;20250;-75
2023/04/13 06:41:27;;;;;;;11.73;2.60;;;19.20;39.80;;;;;;5080228;28;20651;-74
2023/04/13 06:43:54;;;;;;;11.25;2.20;;;19.20;39.50;;;;;;5089735;28;20221;-74
2023/04/13 06:46:22;;;;;;;8.63;2.22;;;19.10;39.10;;;;;;5084578;28;20626;-74
2023/04/13 06:48:49;;;;;;;8.73;2.53;;;19.10;39.20;;;;;;5091513;28;20259;-74
2023/04/13 06:51:16;;;;;;;12.20;2.60;;;19.00;39.10;;;;;;5087496;28;20254;-73
2023/04/13 06:53:45;;;;;;;10.40;2.40;;;19.00;39.00;;;;;;5085563;28;20257;-73
2023/04/13 06:56:12;;;;;;;15.07;2.25;;;19.00;39.30;;;;;;5091005;28;20190;-73
2023/04/13 06:58:39;;;;;;;8.05;2.38;;;19.10;39.60;;;;;;5090491;28;20222;-73
2023/04/13 07:01:07;;;;;;;8.60;2.10;;;19.10;39.60;;;;;;5091152;28;20190;-73
2023/04/13 07:03:34;;;;;;;14.50;1.90;;;19.10;39.60;;;;;;5090822;28;20225;-73
2023/04/13 07:06:01;;;;;;;8.68;2.53;;;19.10;39.80;;;;;;5091070;28;20684;-73
2023/04/13 07:08:30;;;;;;;9.65;2.33;;;19.20;39.80;;;;;;5091463;28;20222;-73
2023/04/13 07:11:01;;;;;;;8.23;2.33;;;19.20;39.90;;;;;;5087864;28;20220;-73
2023/04/13 07:13:28;;;;;;;10.73;2.70;;;19.30;40.80;;;;;;5088977;28;20833;-73
2023/04/13 07:15:56;;;;;;;13.10;2.25;;;19.30;40.40;;;;;;5078268;28;20190;-73
2023/04/13 07:18:23;;;;;;;6.50;2.75;;;19.40;40.30;;;;;;5087520;28;20708;-73
2023/04/13 07:20:50;;;;;;;14.90;2.63;;;19.40;40.30;;;;;;5088233;28;20194;-73
2023/04/13 07:23:17;;;;;;;12.35;2.47;;;19.50;40.30;;;;;;5089380;28;20696;-73
2023/04/13 07:25:44;;;;;;;7.80;2.60;;;19.50;40.40;;;;;;5086832;28;20803;-73
2023/04/13 07:28:13;;;;;;;7.28;2.45;;;19.50;40.40;;;;;;5093050;28;20240;-75
2023/04/13 07:30:43;;;;;;;19.92;3.17;;;19.60;40.50;;;;;;5093180;28;20275;-74
2023/04/13 07:33:10;;;;;;;10.18;3.28;;;19.50;40.40;;;;;;5092439;28;20249;-73
2023/04/13 07:35:38;;;;;;;9.23;2.60;;;19.60;40.40;;;;;;5092282;28;20297;-73
2023/04/13 07:38:06;;;;;;;9.00;2.70;;;19.60;40.40;;;;;;5092682;28;20283;-73
2023/04/13 07:40:34;;;;;;;9.98;2.05;;;19.60;40.40;;;;;;5093072;28;20234;-73
2023/04/13 07:43:01;;;;;;;10.00;2.60;;;19.60;40.40;;;;;;5093139;28;20272;-73
2023/04/13 07:45:31;;;;;;;11.95;2.85;;;19.70;40.40;;;;;;5091707;28;20228;-73
2023/04/13 07:47:58;;;;;;;8.32;2.45;;;19.70;40.40;;;;;;5093143;28;20253;-73
2023/04/13 07:50:26;;;;;;;8.60;2.38;;;19.70;40.40;;;;;;5093610;28;20245;-73
2023/04/13 07:52:53;;;;;;;8.45;2.50;;;19.70;40.40;;;;;;5092918;28;20733;-73
2023/04/13 07:55:20;;;;;;;7.28;2.30;;;19.70;40.40;;;;;;5093463;28;20214;-73
2023/04/13 07:57:47;;;;;;;10.07;2.20;;;19.80;40.40;;;;;;5093081;28;20233;-73
2023/04/13 08:00:17;;;;;;;6.80;1.90;;;19.80;40.40;;;;;;5093632;28;20687;-73
2023/04/13 08:02:46;;;;;;;6.40;1.90;;;19.80;40.40;;;;;;5085153;28;20218;-71
2023/04/13 08:05:13;;;;;;;5.45;1.63;;;19.90;40.40;;;;;;5093431;28;20197;-73
2023/04/13 08:07:40;;;;;;;7.28;2.05;;;19.90;40.30;;;;;;5092376;28;20683;-73
2023/04/13 08:10:08;;;;;;;6.30;2.83;;;19.90;40.30;;;;;;5092943;28;20205;-73
2023/04/13 08:12:36;;;;;;;5.70;1.77;;;19.90;40.20;;;;;;5091261;28;20327;-71
2023/04/13 08:15:03;;;;;;;8.48;1.92;;;19.90;40.10;;;;;;5088906;28;20190;-72
2023/04/13 08:17:30;;;;;;;8.30;2.17;;;20.00;40.20;;;;;;5079175;28;20257;-72
2023/04/13 08:20:00;;;;;;;5.15;1.90;;;20.00;40.20;;;;;;5092185;28;20214;-72
2023/04/13 08:22:27;;;;;;;7.68;1.80;;;20.00;40.20;;;;;;5093684;28;20249;-72
2023/04/13 08:24:55;;;;;;;5.45;1.85;;;20.00;40.20;;;;;;5067619;28;20244;-72
2023/04/13 08:27:22;;;;;;;5.30;1.75;;;20.00;40.20;;;;;;5083994;28;20202;-73
2023/04/13 08:29:55;;;;;;;5.70;1.75;;;20.10;40.30;;;;;;5092845;28;20205;-72
2023/04/13 08:32:22;;;;;;;5.70;1.80;;;20.10;40.30;;;;;;5091872;28;20255;-72
2023/04/13 08:34:49;;;;;;;7.00;1.88;;;20.10;40.20;;;;;;5091757;28;20245;-73
2023/04/13 08:37:19;;;;;;;7.53;1.70;;;20.10;40.10;;;;;;5091716;28;20255;-73
2023/04/13 08:39:47;;;;;;;7.18;1.75;;;20.10;40.20;;;;;;5092650;28;20236;-73
2023/04/13 08:42:14;;;;;;;6.07;1.88;;;20.10;40.10;;;;;;5091953;28;20194;-73
2023/04/13 08:44:42;;;;;;;42.10;2.92;;;20.10;40.10;;;;;;5090852;28;20190;-74
2023/04/13 08:47:10;;;;;;;8.43;1.67;;;20.10;40.10;;;;;;5092283;28;20195;-74
2023/04/13 08:49:39;;;;;;;4.57;1.88;;;20.20;40.20;;;;;;5085000;28;20565;-72
2023/04/13 08:52:07;;;;;;;8.07;1.90;;;20.10;40.10;;;;;;5090578;28;20249;-72
2023/04/13 08:54:36;;;;;;;5.07;1.63;;;20.10;40.10;;;;;;5092199;28;20222;-74
2023/04/13 08:57:03;;;;;;;6.13;1.70;;;20.20;40.20;;;;;;5091246;28;20190;-72
2023/04/13 08:59:31;;;;;;;7.18;1.90;;;20.20;40.10;;;;;;5092166;28;20218;-73
2023/04/13 09:02:00;;;;;;;4.18;1.40;;;20.20;40.10;;;;;;5091736;28;20667;-73
2023/04/13 09:04:31;;;;;;;9.00;1.90;;;20.30;40.20;;;;;;5092280;28;20221;-74
2023/04/13 09:07:00;;;;;;;3.72;1.40;;;20.20;40.00;;;;;;5090492;28;20217;-73
2023/04/13 09:09:28;;;;;;;5.70;1.45;;;20.30;40.00;;;;;;5090440;28;20210;-73
2023/04/13 09:11:57;;;;;;;5.38;1.80;;;20.30;40.00;;;;;;5091451;28;20306;-73
2023/04/13 09:14:24;;;;;;;5.43;1.80;;;20.30;40.00;;;;;;5091295;28;20254;-73
2023/04/13 09:16:51;;;;;;;3.97;1.48;;;20.40;40.00;;;;;;5091283;28;20243;-72
2023/04/13 09:19:29;;;;;;;5.90;1.45;;;20.40;40.00;;;;;;5091651;28;20217;-73
2023/04/13 09:21:56;;;;;;;4.47;1.60;;;20.40;40.00;;;;;;5090541;28;20672;-74
2023/04/13 09:24:23;;;;;;;3.67;1.35;;;20.40;40.00;;;;;;5091338;28;20326;-73
2023/04/13 09:26:51;;;;;;;5.13;1.60;;;20.50;40.00;;;;;;5091740;28;20287;-74
2023/04/13 09:29:22;;;;;;;11.80;2.00;;;20.50;40.00;;;;;;5091562;28;20253;-72
2023/04/13 09:31:50;;;;;;;4.47;1.40;;;20.50;40.00;;;;;;5089555;28;20229;-73
2023/04/13 09:34:27;;;;;;;7.97;1.67;;;20.50;40.00;;;;;;5093574;28;20222;-73
2023/04/13 09:36:54;;;;;;;5.80;1.40;;;20.50;39.90;;;;;;5091941;28;20185;-72
2023/04/13 09:39:25;;;;;;;5.38;1.33;;;20.50;39.90;;;;;;5091625;28;20289;-72
2023/04/13 09:41:53;;;;;;;4.45;1.17;;;20.50;40.60;;;;;;5091746;28;20182;-72
2023/04/13 09:44:24;;;;;;;6.63;1.20;;;20.50;39.80;;;;;;5092064;28;20263;-72
2023/04/13 09:46:58;;;;;;;3.33;1.45;;;20.60;39.80;;;;;;5091169;28;20190;-72
2023/04/13 09:49:25;;;;;;;4.13;1.75;;;20.50;39.90;;;;;;5091574;28;20221;-72
2023/04/13 09:51:54;;;;;;;4.88;1.30;;;20.50;39.70;;;;;;5091760;28;20282;-72
2023/04/13 09:54:22;;;;;;;7.00;1.60;;;20.50;39.80;;;;;;5085258;28;20227;-73
2023/04/13 09:56:53;;;;;;;11.15;1.58;;;20.60;39.90;;;;;;5081281;28;20646;-73
2023/04/13 09:59:23;;;;;;;6.60;1.73;;;20.60;39.90;;;;;;5092396;28;20279;-73
2023/04/13 10:01:52;;;;;;;5.13;1.65;;;20.60;39.70;;;;;;5083566;28;20542;-73
2023/04/13 10:04:22;;;;;;;6.15;1.40;;;20.60;39.70;;;;;;5078120;28;20218;-74
2023/04/13 10:06:52;;;;;;;5.63;1.70;;;20.60;39.80;;;;;;5088650;28;20581;-73
2023/04/13 10:09:21;;;;;;;6.78;1.48;;;20.60;39.50;;;;;;5085646;28;20296;-73
2023/04/13 10:11:51;;;;;;;6.05;1.48;;;20.60;40.20;;;;;;5082057;28;20221;-73
2023/04/13 10:14:26;;;;;;;6.20;1.42;;;20.60;39.40;;;;;;5079881;28;20253;-73
2023/04/13 10:17:20;;;;;;;8.02;1.40;;;20.60;39.20;;;;;;5090227;28;20284;-73
2023/04/13 10:19:51;;;;;;;3.70;1.30;;;20.60;39.40;;;;;;5085382;28;20209;-73
2023/04/13 10:22:29;;;;;;;4.50;1.42;;;20.60;39.40;;;;;;5090927;28;20319;-72
2023/04/13 10:24:59;;;;;;;5.60;1.50;;;20.60;39.20;;;;;;5085729;28;20702;-72
2023/04/13 10:27:35;;;;;;;4.90;1.60;;;20.60;39.30;;;;;;5083736;28;20194;-72
2023/04/13 10:30:20;;;;;;;2.90;1.23;;;20.60;39.30;;;;;;5086346;28;20220;-72
2023/04/13 10:32:51;;;;;;;3.97;1.52;;;20.60;39.30;;;;;;5087738;28;20776;-73
2023/04/13 10:35:22;;;;;;;5.18;1.30;;;20.60;39.20;;;;;;5089954;28;20803;-72
2023/04/13 10:37:58;;;;;;;4.35;1.45;;;20.60;39.30;;;;;;5088337;28;20218;-72
2023/04/13 10:40:30;;;;;;;3.50;1.30;;;20.50;39.20;;;;;;5086183;28;20221;-72
2023/04/13 10:43:03;;;;;;;6.78;1.25;;;20.50;39.20;;;;;;5089882;28;20186;-72
2023/04/13 10:45:37;;;;;;;4.25;1.42;;;20.50;39.20;;;;;;5086206;28;20212;-72
2023/04/13 10:48:16;;;;;;;2.88;1.25;;;20.50;39.20;;;;;;5095097;28;20208;-73
2023/04/13 10:50:49;;;;;;;3.83;1.50;;;20.50;39.10;;;;;;5087442;28;20193;-72
2023/04/13 10:53:39;;;;;;;3.92;1.40;;;20.50;39.30;;;;;;5090739;28;20253;-72
2023/04/13 10:56:21;;;;;;;4.53;1.45;;;20.50;39.20;;;;;;5099200;28;20201;-73
2023/04/13 10:58:57;;;;;;;5.80;1.38;;;20.50;39.30;;;;;;5091705;28;20251;-72
2023/04/13 11:01:30;;;;;;;2.03;1.10;;;20.50;39.30;;;;;;5094763;28;20221;-73
2023/04/13 11:04:03;;;;;;;4.20;1.30;;;20.50;39.40;;;;;;5084932;28;20218;-72
2023/04/13 11:06:37;;;;;;;4.22;1.30;;;20.50;39.40;;;;;;5094235;28;20212;-73
2023/04/13 11:09:05;;;;;;;6.25;1.40;;;20.50;39.40;;;;;;5094355;28;20221;-72
2023/04/13 11:11:39;;;;;;;4.28;1.55;;;20.50;39.30;;;;;;5093768;28;20698;-72
2023/04/13 11:14:06;;;;;;;4.30;1.10;;;20.50;39.40;;;;;;5093897;28;20221;-72
2023/04/13 11:16:45;;;;;;;4.47;1.50;;;20.50;39.30;;;;;;5089333;28;20221;-72
2023/04/13 11:19:13;;;;;;;3.28;1.25;;;20.50;39.40;;;;;;5094904;28;20707;-72
2023/04/13 11:21:43;;;;;;;3.47;1.20;;;20.50;39.30;;;;;;5093975;28;20178;-72
2023/04/13 11:24:11;;;;;;;4.57;1.60;;;20.50;40.10;;;;;;5094429;28;20218;-72
2023/04/13 11:26:38;;;;;;;3.70;1.10;;;20.50;40.20;;;;;;5094130;28;20761;-72
2023/04/13 11:29:06;;;;;;;4.97;1.35;;;20.50;39.50;;;;;;5089936;28;20298;-72
2023/04/13 11:31:40;;;;;;;4.50;1.30;;;20.50;39.40;;;;;;5051586;28;20222;-72
2023/04/13 11:34:12;;;;;;;3.35;1.40;;;20.50;39.40;;;;;;5094079;28;20299;-72
2023/04/13 11:36:43;;;;;;;52.83;4.60;;;20.50;39.40;;;;;;5093649;28;20190;-72
2023/04/13 11:39:11;;;;;;;34.65;2.80;;;20.40;38.30;;;;;;5093906;28;20724;-72
2023/04/13 11:41:44;;;;;;;17.02;2.35;;;20.40;38.60;;;;;;5095416;28;20201;-72
2023/04/13 11:44:13;;;;;;;15.85;2.47;;;20.40;38.90;;;;;;5041283;28;20223;-72
2023/04/13 11:46:55;;;;;;;11.60;2.17;;;20.40;38.90;;;;;;5079578;28;20566;-72
2023/04/13 11:49:27;;;;;;;17.27;1.90;;;20.40;39.00;;;;;;5092375;28;20218;-73
2023/04/13 11:51:55;;;;;;;12.57;1.80;;;20.40;39.10;;;;;;5095480;28;20741;-74
2023/04/13 11:54:23;;;;;;;9.73;1.65;;;20.40;39.10;;;;;;5093038;28;20221;-73
2023/04/13 11:56:50;;;;;;;14.82;1.98;;;20.40;39.20;;;;;;5097260;28;20197;-73
2023/04/13 11:59:22;;;;;;;4.35;1.48;;;20.40;39.30;;;;;;5097792;28;20621;-74
2023/04/13 12:01:50;;;;;;;6.03;1.40;;;20.50;39.50;;;;;;5093269;28;20212;-73
2023/04/13 12:04:19;;;;;;;9.18;1.90;;;20.50;39.50;;;;;;5075547;28;20222;-73
2023/04/13 12:06:53;;;;;;;6.65;1.52;;;20.50;39.50;;;;;;5084335;28;20190;-75
2023/04/13 12:09:24;;;;;;;4.32;1.60;;;20.50;39.50;;;;;;5057591;28;20762;-74
2023/04/13 12:11:52;;;;;;;3.63;1.48;;;20.60;39.60;;;;;;5033163;28;20284;-73
2023/04/13 12:14:23;;;;;;;3.53;1.45;;;20.60;39.60;;;;;;5089916;28;20210;-73
2023/04/13 12:16:51;;;;;;;5.70;1.65;;;20.60;39.60;;;;;;5074822;28;20200;-74
2023/04/13 12:19:24;;;;;;;7.57;1.30;;;20.70;39.70;;;;;;5090114;28;20310;-74
2023/04/13 12:21:58;;;;;;;2.95;1.20;;;20.70;39.70;;;;;;5079595;28;20285;-73
2023/04/13 12:24:33;;;;;;;4.78;1.40;;;20.80;39.80;;;;;;5088319;28;20580;-73
2023/04/13 12:27:03;;;;;;;6.70;1.33;;;20.80;39.70;;;;;;5055128;28;20623;-74
2023/04/13 12:29:34;;;;;;;3.60;1.50;;;20.80;39.70;;;;;;5080384;28;20304;-73
2023/04/13 12:32:07;;;;;;;3.90;1.08;;;20.80;39.80;;;;;;5055542;28;20226;-75
2023/04/13 12:34:41;;;;;;;5.20;1.20;;;20.90;39.90;;;;;;5088873;28;20304;-75
2023/04/13 12:37:12;;;;;;;2.92;0.93;;;20.90;39.80;;;;;;5090152;28;20225;-74
2023/04/13 12:39:39;;;;;;;4.15;1.00;;;20.90;39.80;;;;;;5089598;28;20221;-74
2023/04/13 12:42:06;;;;;;;5.25;1.20;;;20.90;39.70;;;;;;5089652;28;20709;-75
2023/04/13 12:44:34;;;;;;;3.03;1.23;;;20.90;39.80;;;;;;5088169;28;20643;-75
2023/04/13 12:47:01;;;;;;;3.22;1.33;;;20.90;39.80;;;;;;5087314;28;20209;-74
2023/04/13 12:49:28;;;;;;;3.30;0.90;;;21.00;39.90;;;;;;5089395;28;20221;-74
2023/04/13 12:51:55;;;;;;;5.00;1.20;;;21.00;39.90;;;;;;5089554;28;20218;-76